Time;durP1;ratioP1;P1;durP2;ratioP2;P2;SDS_P1;SDS_P2;PMS_P1;PMS_P2;Temp;Humidity;BMP_temperature;BMP_pressure;BME280_temperature;BME280_humidity;BME280_pressure;Samples;Min_cycle;Max_cycle;Signal;HPM_P1;HPM_P2
2022/07/26 00:02:04;;;;;;;0.00;0.00;;;24.10;57.70;;;;;;5092526;28;20032;-72
2022/07/26 00:04:30;;;;;;;0.00;0.00;;;24.00;57.00;;;;;;5094885;28;20028;-72
2022/07/26 00:06:56;;;;;;;0.00;0.00;;;24.00;57.00;;;;;;5075983;28;20462;-72
2022/07/26 00:09:22;;;;;;;0.00;0.00;;;24.00;56.60;;;;;;5091413;28;20023;-72
2022/07/26 00:11:48;;;;;;;0.00;0.00;;;24.20;57.30;;;;;;5075591;28;20031;-72
2022/07/26 00:14:14;;;;;;;0.00;0.00;;;24.30;57.20;;;;;;5096479;28;20372;-72
2022/07/26 00:16:41;;;;;;;2.67;0.47;;;24.20;56.80;;;;;;5077065;28;20020;-72
2022/07/26 00:19:07;;;;;;;0.00;0.00;;;24.60;56.00;;;;;;5094942;28;20035;-72
2022/07/26 00:21:35;;;;;;;0.00;0.00;;;24.60;55.10;;;;;;5090708;28;20074;-72
2022/07/26 00:24:02;;;;;;;0.00;0.00;;;24.60;55.50;;;;;;5088475;28;20020;-72
2022/07/26 00:26:29;;;;;;;0.00;0.00;;;24.70;56.70;;;;;;5093362;28;20028;-72
2022/07/26 00:28:55;;;;;;;0.20;0.20;;;24.80;56.40;;;;;;5089474;28;20020;-72
2022/07/26 00:31:21;;;;;;;0.00;0.00;;;24.90;55.80;;;;;;5087816;28;20024;-72
2022/07/26 00:33:47;;;;;;;0.00;0.00;;;25.10;55.50;;;;;;5093122;28;20035;-72
2022/07/26 00:36:13;;;;;;;0.00;0.00;;;25.10;55.90;;;;;;5089986;28;20027;-72
2022/07/26 00:38:39;;;;;;;0.57;0.57;;;25.10;56.20;;;;;;5091520;28;20025;-72
2022/07/26 00:41:06;;;;;;;0.00;0.00;;;25.40;55.90;;;;;;5089099;28;20028;-72
2022/07/26 00:43:32;;;;;;;0.00;0.00;;;25.50;55.80;;;;;;5091597;28;20073;-72
2022/07/26 00:45:58;;;;;;;0.00;0.00;;;25.80;56.00;;;;;;5094755;28;20012;-72
2022/07/26 00:48:27;;;;;;;0.00;0.00;;;26.30;54.60;;;;;;5095158;28;20184;-72
2022/07/26 00:50:54;;;;;;;0.00;0.00;;;26.70;53.70;;;;;;5092141;28;20091;-72
2022/07/26 00:53:21;;;;;;;0.00;0.00;;;27.30;51.50;;;;;;5094439;28;20049;-73
2022/07/26 00:55:49;;;;;;;0.00;0.00;;;27.70;50.80;;;;;;5093615;28;20052;-72
2022/07/26 00:58:16;;;;;;;0.00;0.00;;;28.20;49.80;;;;;;5089296;28;20180;-73
2022/07/26 01:00:42;;;;;;;0.47;0.47;;;28.70;50.40;;;;;;5093509;28;20022;-74
2022/07/26 01:03:09;;;;;;;0.00;0.00;;;29.30;49.40;;;;;;5094615;28;20106;-75
2022/07/26 01:05:36;;;;;;;0.00;0.00;;;29.60;49.50;;;;;;5094304;28;20036;-75
2022/07/26 01:08:02;;;;;;;0.00;0.00;;;30.20;48.30;;;;;;5091482;28;20032;-77
2022/07/26 01:10:28;;;;;;;0.00;0.00;;;30.90;46.00;;;;;;5094479;28;20031;-76
2022/07/26 01:12:54;;;;;;;0.00;0.00;;;31.20;45.30;;;;;;5082411;28;20491;-74
2022/07/26 01:15:22;;;;;;;0.00;0.00;;;31.50;44.40;;;;;;5084063;28;20028;-74
2022/07/26 01:17:48;;;;;;;0.30;0.30;;;31.90;45.60;;;;;;5095541;28;20456;-74
2022/07/26 01:20:14;;;;;;;0.32;0.32;;;31.90;44.80;;;;;;5093793;28;20041;-73
2022/07/26 01:22:40;;;;;;;6.40;4.57;;;32.40;44.10;;;;;;5075896;28;20024;-74
2022/07/26 01:25:07;;;;;;;0.88;0.88;;;32.30;43.40;;;;;;5102378;28;20043;-73
2022/07/26 01:27:37;;;;;;;0.05;0.05;;;32.10;43.80;;;;;;5103928;28;20111;-74
2022/07/26 01:30:10;;;;;;;0.00;0.00;;;31.90;44.00;;;;;;5091946;28;20042;-73
2022/07/26 01:32:36;;;;;;;0.28;0.28;;;32.10;44.40;;;;;;5092309;28;20020;-74
2022/07/26 01:35:04;;;;;;;0.15;0.15;;;31.90;43.60;;;;;;5086289;28;20031;-74
2022/07/26 01:37:30;;;;;;;0.00;0.00;;;32.20;43.80;;;;;;5094157;28;20032;-73
2022/07/26 01:39:56;;;;;;;0.00;0.00;;;32.30;43.60;;;;;;5114133;28;20432;-74
2022/07/26 01:42:22;;;;;;;0.22;0.22;;;32.60;43.10;;;;;;5091596;28;20020;-75
2022/07/26 01:44:48;;;;;;;0.00;0.00;;;33.10;42.00;;;;;;5093656;28;20028;-74
2022/07/26 01:47:14;;;;;;;1.40;1.35;;;32.90;41.70;;;;;;5093468;28;20077;-74
2022/07/26 01:49:40;;;;;;;0.00;0.00;;;33.10;40.90;;;;;;5074967;28;20121;-75
2022/07/26 01:52:06;;;;;;;0.00;0.00;;;33.20;41.70;;;;;;5074933;28;20032;-74
2022/07/26 01:54:32;;;;;;;0.00;0.00;;;33.50;40.80;;;;;;5093211;28;20035;-74
2022/07/26 01:56:58;;;;;;;0.00;0.00;;;32.90;42.00;;;;;;5092978;28;20494;-74
2022/07/26 01:59:24;;;;;;;0.03;0.03;;;32.80;42.20;;;;;;5091455;28;20099;-74
2022/07/26 02:01:50;;;;;;;1.65;1.55;;;32.10;41.90;;;;;;5089994;28;20020;-75
2022/07/26 02:07:00;;;;;;;0.00;0.00;;;31.70;42.20;;;;;;5088676;28;20459;-74
2022/07/26 02:09:26;;;;;;;0.25;0.25;;;31.50;43.70;;;;;;5088168;28;20089;-74
2022/07/26 02:11:52;;;;;;;2.45;1.00;;;31.20;44.50;;;;;;5083718;28;20100;-75
2022/07/26 02:14:18;;;;;;;0.10;0.10;;;31.40;41.20;;;;;;5088700;28;20472;-74
2022/07/26 02:16:45;;;;;;;0.10;0.10;;;32.10;40.70;;;;;;5087781;28;20074;-77
2022/07/26 02:19:10;;;;;;;0.20;0.20;;;33.20;38.50;;;;;;5084830;28;20020;-76
2022/07/26 02:21:37;;;;;;;0.00;0.00;;;34.30;37.60;;;;;;5086140;28;20116;-75
2022/07/26 02:24:03;;;;;;;0.00;0.00;;;32.80;38.60;;;;;;5078458;28;20607;-75
2022/07/26 02:26:29;;;;;;;15.07;2.08;;;32.60;39.00;;;;;;5071931;28;20040;-75
2022/07/26 02:28:55;;;;;;;0.95;0.95;;;32.80;38.80;;;;;;5091373;28;20510;-75
2022/07/26 02:31:21;;;;;;;2.40;0.77;;;32.90;38.50;;;;;;5089014;28;20024;-76
2022/07/26 02:33:47;;;;;;;0.10;0.10;;;32.80;39.60;;;;;;5097062;28;20153;-75
2022/07/26 02:36:13;;;;;;;3.03;1.42;;;33.20;39.90;;;;;;5084027;28;20533;-74
2022/07/26 02:38:39;;;;;;;0.10;0.10;;;33.40;39.80;;;;;;5069085;28;20039;-74
2022/07/26 02:41:05;;;;;;;0.93;0.70;;;33.50;40.60;;;;;;5092496;28;20388;-74
2022/07/26 02:43:31;;;;;;;0.00;0.00;;;33.60;40.50;;;;;;5083319;28;20068;-75
2022/07/26 02:45:57;;;;;;;0.00;0.00;;;33.80;39.60;;;;;;5079459;28;20031;-76
2022/07/26 02:48:23;;;;;;;0.98;0.98;;;34.20;37.40;;;;;;5083256;28;20028;-75
2022/07/26 02:50:49;;;;;;;1.00;0.45;;;35.50;35.50;;;;;;5069752;28;20032;-76
2022/07/26 02:53:15;;;;;;;0.85;0.85;;;36.20;34.50;;;;;;5064287;28;20713;-76
2022/07/26 02:55:41;;;;;;;0.45;0.45;;;36.70;33.40;;;;;;5081209;28;20074;-76
2022/07/26 02:58:07;;;;;;;0.20;0.20;;;37.20;33.10;;;;;;5085497;28;20047;-76
2022/07/26 03:00:33;;;;;;;0.13;0.13;;;37.10;33.60;;;;;;5064812;28;20020;-76
2022/07/26 03:02:59;;;;;;;0.00;0.00;;;37.40;32.50;;;;;;5082491;28;20384;-76
2022/07/26 03:05:26;;;;;;;0.20;0.20;;;37.90;32.20;;;;;;5084422;28;20051;-76
2022/07/26 03:07:52;;;;;;;1.00;1.00;;;37.50;32.70;;;;;;5081434;28;20161;-77
2022/07/26 03:10:18;;;;;;;0.98;0.98;;;38.00;32.20;;;;;;5075039;28;20032;-78
2022/07/26 03:12:44;;;;;;;0.30;0.30;;;38.00;32.30;;;;;;5071882;28;20076;-75
2022/07/26 03:15:11;;;;;;;0.30;0.30;;;36.80;32.50;;;;;;5067637;28;20032;-76
2022/07/26 03:17:38;;;;;;;0.00;0.00;;;36.30;34.70;;;;;;5075456;28;20024;-77
2022/07/26 03:20:04;;;;;;;0.57;0.57;;;37.10;33.30;;;;;;5080385;28;20024;-76
2022/07/26 03:22:31;;;;;;;0.00;0.00;;;35.90;34.00;;;;;;5091846;28;20031;-76
2022/07/26 03:25:11;;;;;;;0.32;0.32;;;35.50;35.30;;;;;;5083131;28;20487;-75
2022/07/26 03:27:37;;;;;;;8.23;2.25;;;35.00;36.50;;;;;;5102278;28;20054;-76
2022/07/26 03:30:04;;;;;;;2.00;0.75;;;34.60;37.50;;;;;;5091542;28;20031;-76
2022/07/26 03:32:30;;;;;;;2.08;1.98;;;33.70;38.70;;;;;;5094787;28;20043;-76
2022/07/26 03:34:56;;;;;;;0.28;0.25;;;33.60;39.00;;;;;;5081458;28;20372;-76
2022/07/26 03:37:23;;;;;;;1.35;1.25;;;33.30;39.10;;;;;;5096443;28;20536;-75
2022/07/26 03:39:50;;;;;;;6.53;2.05;;;33.20;39.60;;;;;;5114112;28;20495;-76
2022/07/26 03:42:16;;;;;;;0.03;0.03;;;33.40;39.00;;;;;;5083090;28;20394;-77
2022/07/26 03:44:42;;;;;;;0.05;0.05;;;34.70;38.10;;;;;;5096049;28;20069;-76
2022/07/26 03:47:09;;;;;;;0.43;0.43;;;35.50;36.40;;;;;;5072093;28;20032;-76
2022/07/26 03:49:35;;;;;;;5.45;4.90;;;34.80;36.20;;;;;;5091976;28;20045;-76
2022/07/26 03:52:01;;;;;;;0.55;0.55;;;33.30;38.30;;;;;;5106132;28;20023;-76
2022/07/26 03:54:27;;;;;;;0.88;0.45;;;33.40;38.20;;;;;;5100208;28;20035;-75
2022/07/26 03:56:53;;;;;;;1.25;0.95;;;33.20;38.40;;;;;;5108648;28;20040;-76
2022/07/26 03:59:19;;;;;;;0.00;0.00;;;33.50;37.80;;;;;;5088633;28;20031;-76
2022/07/26 04:01:46;;;;;;;0.52;0.52;;;33.60;37.60;;;;;;5087964;28;20170;-76
2022/07/26 04:04:14;;;;;;;2.83;2.63;;;33.90;37.10;;;;;;5087552;28;20091;-74
2022/07/26 04:06:40;;;;;;;6.55;1.55;;;34.00;37.00;;;;;;5071956;28;20108;-74
2022/07/26 04:09:06;;;;;;;0.30;0.30;;;33.10;39.00;;;;;;5089698;28;20036;-75
2022/07/26 04:11:33;;;;;;;1.35;1.05;;;33.10;39.80;;;;;;5068761;28;20378;-74
2022/07/26 04:14:00;;;;;;;0.43;0.38;;;32.40;39.70;;;;;;5091939;28;20043;-75
2022/07/26 04:16:26;;;;;;;3.30;3.08;;;31.80;41.20;;;;;;5092503;28;20059;-73
2022/07/26 04:18:53;;;;;;;0.13;0.13;;;31.70;41.40;;;;;;5086768;28;20056;-75
2022/07/26 04:21:20;;;;;;;0.28;0.28;;;31.80;41.10;;;;;;5082385;28;20052;-73
2022/07/26 04:23:46;;;;;;;1.13;0.95;;;31.60;40.70;;;;;;5062544;28;20510;-75
2022/07/26 04:26:13;;;;;;;1.08;0.95;;;31.70;40.80;;;;;;5091755;28;20024;-75
2022/07/26 04:28:40;;;;;;;0.20;0.20;;;31.60;40.80;;;;;;5085708;28;20032;-74
2022/07/26 04:31:06;;;;;;;2.58;1.35;;;31.80;39.90;;;;;;5073766;28;20055;-74
2022/07/26 04:33:33;;;;;;;3.08;2.42;;;31.80;39.80;;;;;;5094712;28;20031;-76
2022/07/26 04:36:02;;;;;;;0.13;0.13;;;32.10;39.50;;;;;;5091655;28;20480;-75
2022/07/26 04:38:28;;;;;;;1.83;1.77;;;32.60;39.20;;;;;;5088271;28;20047;-75
2022/07/26 04:40:55;;;;;;;12.35;2.45;;;32.80;38.60;;;;;;5096164;28;20020;-73
2022/07/26 04:43:21;;;;;;;0.63;0.63;;;33.20;37.80;;;;;;5077290;28;20115;-74
2022/07/26 04:45:48;;;;;;;0.00;0.00;;;33.20;35.90;;;;;;5096287;28;20052;-73
2022/07/26 04:48:15;;;;;;;0.45;0.45;;;33.20;35.60;;;;;;5082785;28;20028;-74
2022/07/26 04:50:42;;;;;;;0.00;0.00;;;32.90;36.00;;;;;;5088000;28;20040;-76
2022/07/26 04:53:10;;;;;;;1.42;1.35;;;33.00;36.20;;;;;;5090930;28;20036;-78
2022/07/26 04:55:37;;;;;;;4.85;2.33;;;33.30;36.10;;;;;;5080408;28;20124;-74
2022/07/26 04:58:03;;;;;;;0.00;0.00;;;33.20;36.40;;;;;;5066715;28;20040;-76
2022/07/26 05:00:29;;;;;;;0.55;0.52;;;33.30;36.90;;;;;;5064739;28;20091;-75
2022/07/26 05:03:00;;;;;;;2.45;0.73;;;33.20;36.80;;;;;;5082532;28;20100;-73
2022/07/26 05:05:28;;;;;;;0.05;0.05;;;32.60;36.60;;;;;;5055300;28;20025;-75
2022/07/26 05:07:58;;;;;;;0.30;0.30;;;32.40;37.50;;;;;;5057866;28;20505;-77
2022/07/26 05:10:29;;;;;;;0.00;0.00;;;32.60;37.10;;;;;;5065676;28;20025;-76
2022/07/26 05:12:56;;;;;;;0.10;0.10;;;32.80;36.00;;;;;;5062696;28;20035;-76
2022/07/26 05:15:22;;;;;;;0.25;0.25;;;33.00;35.40;;;;;;5066994;28;20020;-76
2022/07/26 05:17:48;;;;;;;0.00;0.00;;;33.20;35.10;;;;;;5063120;28;20029;-78
2022/07/26 05:20:15;;;;;;;0.20;0.13;;;33.30;35.40;;;;;;5067971;28;20016;-76
2022/07/26 05:22:43;;;;;;;0.00;0.00;;;33.50;35.60;;;;;;5065554;28;20137;-75
2022/07/26 05:25:09;;;;;;;3.60;0.47;;;33.50;35.30;;;;;;5063817;28;20025;-76
2022/07/26 05:27:40;;;;;;;1.35;0.57;;;33.10;36.30;;;;;;5063310;28;20024;-74
2022/07/26 05:30:08;;;;;;;0.25;0.25;;;32.60;36.90;;;;;;5062777;28;20028;-74
2022/07/26 05:32:35;;;;;;;1.25;1.15;;;32.30;37.90;;;;;;5063062;28;20033;-76
2022/07/26 05:35:01;;;;;;;0.30;0.25;;;32.40;37.70;;;;;;5061951;28;20025;-76
2022/07/26 05:37:27;;;;;;;4.30;0.55;;;32.50;37.10;;;;;;5058958;28;20025;-76
2022/07/26 05:39:53;;;;;;;2.38;0.55;;;32.70;37.00;;;;;;5072060;28;20029;-76
2022/07/26 05:42:19;;;;;;;0.00;0.00;;;32.60;37.10;;;;;;5054414;28;20017;-77
2022/07/26 05:44:45;;;;;;;0.08;0.08;;;32.80;36.90;;;;;;5064107;28;20033;-76
2022/07/26 05:47:11;;;;;;;0.00;0.00;;;32.80;36.90;;;;;;5063238;28;20078;-75
2022/07/26 05:49:37;;;;;;;0.00;0.00;;;33.00;37.20;;;;;;5066805;28;20032;-78
2022/07/26 05:52:04;;;;;;;0.43;0.43;;;33.10;37.00;;;;;;5055888;28;20029;-78
2022/07/26 05:54:30;;;;;;;0.00;0.00;;;33.20;36.30;;;;;;5062973;28;20067;-77
2022/07/26 05:56:56;;;;;;;0.00;0.00;;;33.40;36.40;;;;;;5068928;28;20044;-78
2022/07/26 05:59:22;;;;;;;0.55;0.10;;;33.60;35.00;;;;;;5062321;28;20021;-77
2022/07/26 06:01:49;;;;;;;0.03;0.03;;;33.30;35.30;;;;;;5067997;28;20024;-80
2022/07/26 06:04:15;;;;;;;0.47;0.38;;;33.30;34.30;;;;;;5064537;28;20024;-77
2022/07/26 06:06:41;;;;;;;0.00;0.00;;;33.40;33.70;;;;;;5060108;28;20032;-77
2022/07/26 06:09:07;;;;;;;0.00;0.00;;;33.50;33.60;;;;;;5057650;28;20427;-77
2022/07/26 06:11:33;;;;;;;0.00;0.00;;;33.60;33.60;;;;;;5066203;28;20036;-77
2022/07/26 06:13:59;;;;;;;0.00;0.00;;;33.40;34.30;;;;;;5068058;28;20029;-77
2022/07/26 06:16:25;;;;;;;7.47;6.35;;;33.50;33.80;;;;;;5072882;28;20028;-77
2022/07/26 06:18:51;;;;;;;0.40;0.20;;;33.50;33.70;;;;;;5062564;28;20038;-77
2022/07/26 06:21:17;;;;;;;0.00;0.00;;;33.80;33.80;;;;;;5066125;28;20028;-77
2022/07/26 06:23:43;;;;;;;0.63;0.63;;;33.80;33.70;;;;;;5061579;28;20021;-78
2022/07/26 06:26:09;;;;;;;0.00;0.00;;;33.80;33.50;;;;;;5069279;28;20357;-78
2022/07/26 06:28:37;;;;;;;0.00;0.00;;;34.00;33.80;;;;;;5072505;28;20063;-77
2022/07/26 06:31:05;;;;;;;0.00;0.00;;;34.00;34.00;;;;;;5074726;28;20032;-78
2022/07/26 06:33:32;;;;;;;0.65;0.65;;;34.10;33.50;;;;;;5075831;28;20057;-77
2022/07/26 06:35:58;;;;;;;0.85;0.85;;;34.00;33.00;;;;;;5074677;28;20043;-78
2022/07/26 06:38:24;;;;;;;0.43;0.10;;;34.00;33.50;;;;;;5082435;28;20024;-75
2022/07/26 06:40:50;;;;;;;0.50;0.35;;;33.90;35.00;;;;;;5082780;28;20028;-75
2022/07/26 06:43:16;;;;;;;4.78;0.25;;;33.70;33.50;;;;;;5076388;28;20477;-76
2022/07/26 06:45:42;;;;;;;6.63;2.17;;;33.70;33.90;;;;;;5069399;28;20033;-76
2022/07/26 06:48:08;;;;;;;1.63;0.38;;;33.80;34.30;;;;;;5063294;28;20033;-76
2022/07/26 06:50:34;;;;;;;0.65;0.55;;;34.00;33.70;;;;;;5063413;28;20029;-76
2022/07/26 06:53:00;;;;;;;0.75;0.75;;;33.70;34.20;;;;;;5072116;28;20078;-77
2022/07/26 06:55:26;;;;;;;0.00;0.00;;;34.00;34.10;;;;;;5062519;28;20036;-78
2022/07/26 06:57:52;;;;;;;0.00;0.00;;;34.00;34.20;;;;;;5063612;28;20045;-77
2022/07/26 07:00:18;;;;;;;0.00;0.00;;;33.90;34.10;;;;;;5061305;28;20460;-77
2022/07/26 07:02:44;;;;;;;0.00;0.00;;;34.10;33.60;;;;;;5058874;28;20032;-78
2022/07/26 07:05:11;;;;;;;0.00;0.00;;;34.20;33.50;;;;;;5070630;28;20048;-77
2022/07/26 07:07:37;;;;;;;2.35;0.98;;;34.30;33.20;;;;;;5065009;28;20547;-78
2022/07/26 07:10:05;;;;;;;0.08;0.08;;;34.00;33.80;;;;;;5067096;28;20124;-77
2022/07/26 07:12:31;;;;;;;1.10;0.50;;;34.00;34.20;;;;;;5066926;28;20717;-77
2022/07/26 07:14:57;;;;;;;4.75;4.38;;;33.90;34.40;;;;;;5060329;28;20051;-78
2022/07/26 07:17:23;;;;;;;0.00;0.00;;;34.20;34.30;;;;;;5065924;28;20071;-79
2022/07/26 07:19:53;;;;;;;0.00;0.00;;;34.50;33.50;;;;;;5062736;28;20551;-77
2022/07/26 07:22:19;;;;;;;0.15;0.15;;;34.70;32.90;;;;;;5062641;28;20032;-78
2022/07/26 07:24:45;;;;;;;0.10;0.10;;;34.80;32.60;;;;;;5065737;28;20025;-76
2022/07/26 07:27:11;;;;;;;0.00;0.00;;;34.90;32.40;;;;;;5062202;28;20378;-77
2022/07/26 07:29:38;;;;;;;1.50;1.27;;;34.60;33.10;;;;;;5063970;28;20040;-76
2022/07/26 07:32:05;;;;;;;1.17;1.17;;;34.70;32.90;;;;;;5069337;28;20405;-75
2022/07/26 07:34:31;;;;;;;0.45;0.45;;;34.30;34.10;;;;;;5075707;28;20025;-75
2022/07/26 07:36:57;;;;;;;8.68;2.63;;;34.00;33.90;;;;;;5061924;28;20113;-76
2022/07/26 07:39:23;;;;;;;0.43;0.43;;;34.30;33.90;;;;;;5063425;28;20020;-77
2022/07/26 07:41:49;;;;;;;0.10;0.10;;;34.30;33.60;;;;;;5059585;28;20025;-77
2022/07/26 07:44:15;;;;;;;0.70;0.70;;;34.30;33.70;;;;;;5070408;28;20037;-76
2022/07/26 07:46:41;;;;;;;0.00;0.00;;;34.70;33.80;;;;;;5074311;28;20062;-76
2022/07/26 07:49:09;;;;;;;0.00;0.00;;;35.00;33.50;;;;;;5061019;28;20028;-77
2022/07/26 07:51:35;;;;;;;0.00;0.00;;;35.00;34.40;;;;;;5074989;28;20028;-77
2022/07/26 07:54:01;;;;;;;0.00;0.00;;;34.90;33.60;;;;;;5066169;28;20055;-78
2022/07/26 07:56:27;;;;;;;0.20;0.20;;;35.00;33.30;;;;;;5065169;28;20024;-78
2022/07/26 07:58:53;;;;;;;0.15;0.10;;;35.00;33.20;;;;;;5080638;28;20546;-78
2022/07/26 08:01:19;;;;;;;0.17;0.10;;;34.80;32.90;;;;;;5093562;28;20024;-77
2022/07/26 08:03:45;;;;;;;0.10;0.10;;;35.10;32.80;;;;;;5073291;28;20028;-79
2022/07/26 08:06:11;;;;;;;0.45;0.10;;;35.30;32.20;;;;;;5092072;28;20031;-77
2022/07/26 08:08:38;;;;;;;7.13;2.35;;;35.30;32.70;;;;;;5067058;28;20036;-80
2022/07/26 08:11:04;;;;;;;0.15;0.15;;;35.50;32.20;;;;;;5090994;28;20039;-78
2022/07/26 08:13:31;;;;;;;0.00;0.00;;;35.60;32.30;;;;;;5077593;28;20051;-79
2022/07/26 08:15:57;;;;;;;1.10;0.50;;;35.70;31.50;;;;;;5103138;28;20050;-80
2022/07/26 08:18:23;;;;;;;3.90;2.15;;;35.70;31.50;;;;;;5085903;28;20023;-80
2022/07/26 08:20:53;;;;;;;1.13;0.25;;;35.20;32.70;;;;;;5095915;28;20491;-80
2022/07/26 08:23:19;;;;;;;1.23;0.98;;;35.40;33.50;;;;;;5092394;28;20020;-81
2022/07/26 08:25:46;;;;;;;1.48;1.38;;;35.30;34.00;;;;;;5087081;28;20016;-81
2022/07/26 08:28:12;;;;;;;1.88;1.05;;;34.80;34.10;;;;;;5091225;28;20046;-80
2022/07/26 08:30:38;;;;;;;0.45;0.45;;;35.10;34.60;;;;;;5090023;28;20473;-83
2022/07/26 08:33:04;;;;;;;1.60;1.50;;;35.00;34.80;;;;;;5088500;28;20023;-82
2022/07/26 08:35:30;;;;;;;0.00;0.00;;;35.30;34.10;;;;;;5066412;28;20032;-81
2022/07/26 08:37:57;;;;;;;3.03;0.60;;;35.20;33.00;;;;;;5103681;28;20020;-81
2022/07/26 08:40:23;;;;;;;0.45;0.45;;;35.30;31.50;;;;;;5067028;28;20048;-79
2022/07/26 08:42:51;;;;;;;0.00;0.00;;;35.40;32.40;;;;;;5092600;28;20078;-80
2022/07/26 08:45:26;;;;;;;32.75;18.75;;;35.70;31.80;;;;;;5102386;28;20028;-79
2022/07/26 08:47:53;;;;;;;0.00;0.00;;;35.80;31.10;;;;;;5097554;28;20100;-81
2022/07/26 08:50:20;;;;;;;0.10;0.10;;;36.00;32.40;;;;;;5072078;28;20400;-82
2022/07/26 08:52:46;;;;;;;0.28;0.28;;;35.90;31.60;;;;;;5090730;28;20024;-81
2022/07/26 08:55:18;;;;;;;0.20;0.15;;;36.20;30.80;;;;;;5098442;28;20020;-80
2022/07/26 08:57:44;;;;;;;0.00;0.00;;;36.30;30.30;;;;;;5098026;28;20074;-81
2022/07/26 09:00:21;;;;;;;0.50;0.50;;;36.60;31.50;;;;;;5088914;28;20025;-82
2022/07/26 09:02:48;;;;;;;1.65;0.93;;;36.50;31.50;;;;;;5067640;28;20981;-81
2022/07/26 09:05:32;;;;;;;0.00;0.00;;;36.40;32.20;;;;;;5087652;28;20122;-82
2022/07/26 09:07:59;;;;;;;1.95;0.77;;;36.50;33.10;;;;;;5091221;28;20050;-81
2022/07/26 09:10:26;;;;;;;0.00;0.00;;;36.40;33.50;;;;;;5073202;28;20028;-81
2022/07/26 09:12:54;;;;;;;0.05;0.05;;;36.20;33.10;;;;;;5092680;28;20388;-81
2022/07/26 09:15:24;;;;;;;0.52;0.32;;;36.00;33.60;;;;;;5081872;28;20029;-80
2022/07/26 09:17:53;;;;;;;0.00;0.00;;;36.20;34.00;;;;;;5077134;28;20299;-82
2022/07/26 09:20:25;;;;;;;0.00;0.00;;;36.10;32.40;;;;;;5066136;28;20444;-81
2022/07/26 09:23:01;;;;;;;0.45;0.45;;;35.90;32.20;;;;;;5084220;28;20457;-82
2022/07/26 09:25:30;;;;;;;0.77;0.63;;;36.00;32.00;;;;;;5085117;28;20122;-81
2022/07/26 09:27:57;;;;;;;0.13;0.13;;;35.80;30.90;;;;;;5089908;28;20028;-81
2022/07/26 09:30:24;;;;;;;0.00;0.00;;;35.80;31.20;;;;;;5088771;28;20165;-80
2022/07/26 09:33:00;;;;;;;0.32;0.30;;;35.70;31.10;;;;;;5068595;28;20028;-79
2022/07/26 09:35:27;;;;;;;0.00;0.00;;;36.00;30.60;;;;;;5091960;28;20016;-77
2022/07/26 09:37:53;;;;;;;0.00;0.00;;;36.20;31.10;;;;;;5095250;28;20039;-78
2022/07/26 09:40:20;;;;;;;0.88;0.85;;;36.10;31.40;;;;;;5068827;28;20028;-77
2022/07/26 09:43:15;;;;;;;7.80;3.95;;;36.10;30.40;;;;;;5070340;28;20020;-77
2022/07/26 09:45:42;;;;;;;0.38;0.32;;;35.90;29.50;;;;;;5069106;28;20036;-76
2022/07/26 09:48:11;;;;;;;0.00;0.00;;;35.80;29.50;;;;;;5093288;28;20031;-75
2022/07/26 09:50:38;;;;;;;0.17;0.10;;;35.80;29.60;;;;;;5070689;28;20024;-75
2022/07/26 09:53:11;;;;;;;0.08;0.08;;;36.00;28.20;;;;;;5095776;28;20476;-78
2022/07/26 09:55:43;;;;;;;0.00;0.00;;;36.20;28.30;;;;;;5101197;28;20080;-78
2022/07/26 09:58:12;;;;;;;0.03;0.03;;;36.30;29.10;;;;;;5089184;28;20068;-80
2022/07/26 10:00:39;;;;;;;0.00;0.00;;;36.30;28.20;;;;;;5082694;28;20020;-76
2022/07/26 10:03:05;;;;;;;0.55;0.55;;;36.40;29.20;;;;;;5091649;28;20023;-79
2022/07/26 10:05:35;;;;;;;0.00;0.00;;;36.30;29.80;;;;;;5082047;28;20378;-75
2022/07/26 10:08:03;;;;;;;0.00;0.00;;;36.30;29.40;;;;;;5085767;28;20056;-79
2022/07/26 10:10:32;;;;;;;0.00;0.00;;;36.40;29.50;;;;;;5072900;28;20036;-76
2022/07/26 10:13:01;;;;;;;0.00;0.00;;;36.50;29.60;;;;;;5061116;28;20029;-78
2022/07/26 10:15:41;;;;;;;2.92;2.72;;;36.30;29.30;;;;;;5093504;28;20091;-78
2022/07/26 10:18:35;;;;;;;0.00;0.00;;;36.50;29.30;;;;;;5074354;28;20645;-78
2022/07/26 10:21:31;;;;;;;0.00;0.00;;;36.60;28.60;;;;;;5076127;28;20027;-78
2022/07/26 10:24:02;;;;;;;0.10;0.10;;;36.70;29.20;;;;;;5087313;28;20044;-77
2022/07/26 10:26:30;;;;;;;0.05;0.05;;;36.80;29.00;;;;;;5093488;28;20020;-78
2022/07/26 10:29:18;;;;;;;0.00;0.00;;;36.90;28.20;;;;;;5100135;28;20021;-77
2022/07/26 10:31:46;;;;;;;0.40;0.40;;;36.30;28.60;;;;;;5078793;28;20049;-79
2022/07/26 10:34:34;;;;;;;0.00;0.00;;;36.10;29.50;;;;;;5080862;27;20055;-78
2022/07/26 10:37:03;;;;;;;0.00;0.00;;;36.00;29.90;;;;;;5088480;28;20028;-78
2022/07/26 10:39:29;;;;;;;0.10;0.10;;;36.20;29.50;;;;;;5088181;28;20024;-80
2022/07/26 10:42:10;;;;;;;0.00;0.00;;;36.30;28.80;;;;;;5069844;28;20024;-81
2022/07/26 10:44:38;;;;;;;0.00;0.00;;;36.50;28.80;;;;;;5085782;28;20028;-80
2022/07/26 10:47:07;;;;;;;0.75;0.75;;;36.50;28.60;;;;;;5067011;28;20031;-81
2022/07/26 10:49:35;;;;;;;2.60;0.75;;;36.30;28.90;;;;;;5067651;28;20032;-81
2022/07/26 10:52:13;;;;;;;6.60;0.40;;;36.10;29.20;;;;;;5086651;28;20028;-81
2022/07/26 10:54:58;;;;;;;0.00;0.00;;;35.90;28.70;;;;;;5061814;28;20031;-80
2022/07/26 10:57:25;;;;;;;0.00;0.00;;;36.10;29.10;;;;;;5097293;28;20043;-79
2022/07/26 10:59:52;;;;;;;0.00;0.00;;;36.10;28.50;;;;;;5095153;28;20024;-79
2022/07/26 11:02:20;;;;;;;29.63;27.02;;;36.10;28.60;;;;;;5086996;28;20017;-80
2022/07/26 11:04:47;;;;;;;0.30;0.30;;;35.90;28.90;;;;;;5081332;28;20051;-80
2022/07/26 11:07:13;;;;;;;4.22;0.75;;;35.80;29.40;;;;;;5091728;28;20016;-78
2022/07/26 11:09:40;;;;;;;0.00;0.00;;;36.00;29.90;;;;;;5112000;28;20020;-78
2022/07/26 11:12:20;;;;;;;0.00;0.00;;;35.90;29.80;;;;;;5094341;28;20074;-80
2022/07/26 11:14:47;;;;;;;0.00;0.00;;;36.00;28.80;;;;;;5069087;28;20040;-80
2022/07/26 11:17:28;;;;;;;0.10;0.10;;;35.90;28.80;;;;;;5082625;28;20024;-79
2022/07/26 11:19:55;;;;;;;0.00;0.00;;;36.00;28.00;;;;;;5081328;28;20641;-78
2022/07/26 11:22:21;;;;;;;0.00;0.00;;;36.20;28.30;;;;;;5073099;28;21141;-78
2022/07/26 11:24:47;;;;;;;0.00;0.00;;;36.20;27.50;;;;;;5076276;28;20055;-78
2022/07/26 11:27:14;;;;;;;0.40;0.40;;;36.10;27.90;;;;;;5076740;28;20040;-77
2022/07/26 11:29:40;;;;;;;0.00;0.00;;;35.80;28.10;;;;;;5071795;28;20020;-77
2022/07/26 11:32:27;;;;;;;0.08;0.08;;;35.80;28.60;;;;;;5085318;28;20027;-77
2022/07/26 11:35:00;;;;;;;0.00;0.00;;;35.80;28.80;;;;;;5080166;28;20044;-77
2022/07/26 11:37:27;;;;;;;2.03;1.88;;;35.70;29.10;;;;;;5087405;28;20012;-76
2022/07/26 11:39:53;;;;;;;0.08;0.08;;;35.70;28.80;;;;;;5085631;28;20095;-77
2022/07/26 11:42:20;;;;;;;0.00;0.00;;;35.50;29.20;;;;;;5066977;28;20032;-77
2022/07/26 11:44:48;;;;;;;0.00;0.00;;;35.50;29.70;;;;;;5084603;28;20016;-76
2022/07/26 11:47:20;;;;;;;0.00;0.00;;;35.50;29.50;;;;;;5086020;28;20026;-76
2022/07/26 11:49:47;;;;;;;0.00;0.00;;;35.60;29.10;;;;;;5088287;28;20032;-76
2022/07/26 11:52:14;;;;;;;2.83;2.63;;;35.60;29.20;;;;;;5089702;28;20024;-79
2022/07/26 11:54:49;;;;;;;0.00;0.00;;;35.70;29.40;;;;;;5087160;28;20020;-78
2022/07/26 11:57:17;;;;;;;0.00;0.00;;;35.80;29.30;;;;;;5080480;28;20388;-78
2022/07/26 11:59:45;;;;;;;0.00;0.00;;;35.80;29.80;;;;;;5095322;28;20024;-77
2022/07/26 12:02:13;;;;;;;0.00;0.00;;;35.50;29.50;;;;;;5106350;28;20020;-78
2022/07/26 12:04:43;;;;;;;0.43;0.40;;;35.60;29.60;;;;;;5099051;28;20019;-77
2022/07/26 12:07:13;;;;;;;0.00;0.00;;;35.70;30.10;;;;;;5062420;28;20028;-78
2022/07/26 12:09:45;;;;;;;0.00;0.00;;;35.60;29.50;;;;;;5086279;28;20033;-77
2022/07/26 12:12:22;;;;;;;0.30;0.30;;;35.50;29.90;;;;;;5064262;28;20668;-77
2022/07/26 12:14:57;;;;;;;0.22;0.10;;;35.10;30.10;;;;;;5087413;28;20031;-77
2022/07/26 12:17:23;;;;;;;0.00;0.00;;;35.10;30.00;;;;;;5068696;28;20463;-77
2022/07/26 12:19:49;;;;;;;0.00;0.00;;;35.30;30.10;;;;;;5090880;28;20032;-78
2022/07/26 12:22:20;;;;;;;0.00;0.00;;;35.20;30.50;;;;;;5095815;28;20027;-77
2022/07/26 12:24:55;;;;;;;0.00;0.00;;;35.30;30.00;;;;;;5089611;28;20024;-77
2022/07/26 12:27:27;;;;;;;0.00;0.00;;;35.40;30.10;;;;;;5090423;28;20028;-77
2022/07/26 12:30:12;;;;;;;0.00;0.00;;;35.20;30.70;;;;;;5092908;28;20085;-77
2022/07/26 12:32:43;;;;;;;0.00;0.00;;;35.20;30.70;;;;;;5090400;28;20020;-77
2022/07/26 12:35:13;;;;;;;0.20;0.20;;;35.10;30.30;;;;;;5089966;28;20077;-77
2022/07/26 12:37:57;;;;;;;0.00;0.00;;;35.10;30.20;;;;;;5087585;28;20023;-77
2022/07/26 12:40:26;;;;;;;0.00;0.00;;;35.00;29.90;;;;;;5086263;28;20047;-76
2022/07/26 12:43:00;;;;;;;0.00;0.00;;;35.00;29.60;;;;;;5071664;28;20020;-77
2022/07/26 12:45:34;;;;;;;0.00;0.00;;;35.00;29.40;;;;;;5071747;28;20426;-77
2022/07/26 12:48:06;;;;;;;0.88;0.55;;;35.10;29.90;;;;;;5090603;28;20017;-76
2022/07/26 12:50:32;;;;;;;0.00;0.00;;;34.90;29.50;;;;;;5092788;28;20078;-77
2022/07/26 12:53:01;;;;;;;0.00;0.00;;;35.00;29.60;;;;;;5095360;28;20031;-77